createdAt,value
2022-08-03T00:01:50.283Z,94.23
2022-08-03T00:04:17.421Z,94.84
2022-08-03T00:06:44.290Z,95.07
2022-08-03T00:09:11.359Z,94.41
2022-08-03T00:11:38.680Z,94.18
2022-08-03T00:14:06.565Z,94.45
2022-08-03T00:16:33.213Z,94.45
2022-08-03T00:19:00.833Z,94.45
2022-08-03T00:21:28.933Z,94.53
2022-08-03T00:23:55.762Z,94.35
2022-08-03T00:26:22.865Z,94.72
2022-08-03T00:28:50.205Z,95.39
2022-08-03T00:31:20.389Z,95.34
2022-08-03T00:34:04.294Z,95.19
2022-08-03T00:36:31.082Z,94.98
2022-08-03T00:38:58.365Z,95.21
2022-08-03T00:41:25.106Z,95.81
2022-08-03T00:43:51.830Z,96.18
2022-08-03T00:46:21.734Z,96.42
2022-08-03T00:48:50.464Z,96.61
2022-08-03T00:51:18.135Z,96.96
2022-08-03T00:53:45.797Z,97.42
2022-08-03T00:56:16.765Z,97.69
2022-08-03T00:58:47.211Z,97.94
2022-08-03T01:01:14.657Z,98.07
2022-08-03T01:03:42.034Z,97.67
2022-08-03T01:06:25.540Z,97.25
2022-08-03T01:09:07.683Z,97.16
2022-08-03T01:12:00.134Z,97.36
2022-08-03T01:14:42.180Z,97.32
2022-08-03T01:17:23.216Z,97.23
2022-08-03T01:19:58.657Z,97.69
2022-08-03T01:22:40.419Z,98.06
2022-08-03T01:25:36.423Z,98.12
2022-08-03T01:28:32.671Z,98.84
2022-08-03T01:31:04.278Z,98.49
2022-08-03T01:33:42.202Z,97.63
2022-08-03T01:36:23.144Z,97.25
2022-08-03T01:38:55.315Z,97.38
2022-08-03T01:41:29.171Z,97.77
2022-08-03T01:44:28.359Z,98.26
2022-08-03T01:46:49.197Z,98.94
2022-08-03T01:49:17.338Z,98.99
2022-08-03T01:52:02.777Z,99.35
2022-08-03T01:54:34.943Z,99.05
2022-08-03T01:57:02.914Z,98.97
2022-08-03T01:59:32.499Z,99.06
2022-08-03T02:02:28.225Z,99.47
2022-08-03T02:04:48.971Z,99.83
2022-08-03T02:07:16.459Z,99.54
2022-08-03T02:09:46.918Z,98.86
2022-08-03T02:12:15.313Z,99.00
2022-08-03T02:14:45.562Z,98.62
2022-08-03T02:17:12.943Z,98.06
2022-08-03T02:19:41.063Z,98.06
2022-08-03T02:22:11.010Z,98.81
2022-08-03T02:24:38.518Z,99.20
2022-08-03T02:27:21.224Z,99.24
2022-08-03T02:29:53.340Z,99.55
2022-08-03T02:32:24.310Z,99.28
2022-08-03T02:34:54.859Z,99.57
2022-08-03T02:37:27.424Z,99.68
2022-08-03T02:39:57.930Z,99.73
2022-08-03T02:42:26.955Z,99.93
2022-08-03T02:44:57.110Z,99.94
2022-08-03T02:47:26.761Z,100.00
2022-08-03T02:49:55.853Z,100.00
2022-08-03T02:52:25.545Z,100.00
2022-08-03T02:54:56.249Z,100.00
2022-08-03T02:57:25.772Z,100.00
2022-08-03T02:59:53.564Z,100.00
2022-08-03T03:02:21.043Z,100.00
2022-08-03T03:05:51.816Z,100.00
2022-08-03T03:07:51.823Z,100.00
2022-08-03T03:10:22.640Z,100.00
2022-08-03T03:12:52.499Z,100.00
2022-08-03T03:15:19.487Z,100.00
2022-08-03T03:17:47.624Z,100.00
2022-08-03T03:20:16.074Z,100.00
2022-08-03T03:22:58.723Z,100.00
2022-08-03T03:25:25.567Z,100.00
2022-08-03T03:27:52.555Z,100.00
2022-08-03T03:30:19.551Z,100.00
2022-08-03T03:32:46.310Z,100.00
2022-08-03T03:35:14.062Z,100.00
2022-08-03T03:37:40.896Z,100.00
2022-08-03T03:40:09.091Z,100.00
2022-08-03T03:42:36.055Z,100.00
2022-08-03T03:45:07.170Z,100.00
2022-08-03T03:47:35.675Z,100.00
2022-08-03T03:50:04.322Z,100.00
2022-08-03T03:52:32.220Z,100.00
2022-08-03T03:55:00.981Z,100.00
2022-08-03T03:57:28.506Z,100.00
2022-08-03T03:59:55.304Z,100.00
2022-08-03T04:02:21.981Z,100.00
2022-08-03T04:05:07.280Z,100.00
2022-08-03T04:08:14.754Z,100.00
2022-08-03T04:10:59.113Z,100.00
2022-08-03T04:13:33.455Z,100.00
2022-08-03T04:16:01.407Z,100.00
2022-08-03T04:18:31.412Z,100.00
2022-08-03T04:21:04.390Z,100.00
2022-08-03T04:23:34.843Z,100.00
2022-08-03T04:26:03.475Z,100.00
2022-08-03T04:28:32.631Z,100.00
2022-08-03T04:31:01.388Z,100.00
2022-08-03T04:33:31.402Z,100.00
2022-08-03T04:36:03.459Z,100.00
2022-08-03T04:38:36.703Z,100.00
2022-08-03T04:41:04.282Z,100.00
2022-08-03T04:43:33.770Z,99.80
2022-08-03T04:46:01.718Z,99.75
2022-08-03T04:48:28.985Z,99.40
2022-08-03T04:50:55.985Z,98.78
2022-08-03T04:53:22.879Z,98.00
2022-08-03T04:55:50.076Z,96.88
2022-08-03T04:58:16.759Z,96.54
2022-08-03T05:00:45.527Z,95.91
2022-08-03T05:03:20.262Z,95.32
2022-08-03T05:05:52.947Z,94.88
2022-08-03T05:08:27.640Z,94.14
2022-08-03T05:10:55.870Z,93.73
2022-08-03T05:13:25.977Z,92.44
2022-08-03T05:15:52.774Z,91.25
2022-08-03T05:18:19.455Z,90.94
2022-08-03T05:20:46.133Z,90.51
2022-08-03T05:23:12.791Z,89.03
2022-08-03T05:25:39.519Z,88.29
2022-08-03T05:28:06.244Z,87.49
2022-08-03T05:30:33.937Z,86.59
2022-08-03T05:33:03.463Z,86.06
2022-08-03T05:35:57.424Z,85.76
2022-08-03T05:38:24.010Z,84.82
2022-08-03T05:41:22.974Z,84.08
2022-08-03T05:43:44.961Z,83.75
2022-08-03T05:46:13.133Z,82.29
2022-08-03T05:48:40.651Z,82.51
2022-08-03T05:51:11.393Z,81.13
2022-08-03T05:53:39.617Z,80.20
2022-08-03T05:56:13.997Z,80.56
2022-08-03T05:58:48.386Z,79.25
2022-08-03T06:01:16.828Z,76.23
2022-08-03T06:03:43.988Z,77.80
2022-08-03T06:06:11.756Z,76.24
2022-08-03T06:08:39.008Z,75.84
2022-08-03T06:11:05.799Z,72.30
2022-08-03T06:13:32.818Z,73.64
2022-08-03T06:15:59.467Z,69.94
2022-08-03T06:18:26.131Z,67.31
2022-08-03T06:20:53.267Z,65.14
2022-08-03T06:23:20.595Z,65.06
2022-08-03T06:25:47.680Z,63.53
2022-08-03T06:31:02.370Z,62.48
2022-08-03T06:34:30.881Z,61.06
2022-08-03T06:36:16.274Z,62.90
2022-08-03T06:38:42.929Z,63.37
2022-08-03T06:41:09.662Z,61.51
2022-08-03T06:43:37.942Z,60.67
2022-08-03T06:46:24.420Z,59.66
2022-08-03T06:48:52.338Z,58.44
2022-08-03T06:51:19.018Z,57.47
2022-08-03T06:53:45.682Z,56.09
2022-08-03T06:56:12.387Z,54.97
2022-08-03T06:58:39.071Z,53.51
2022-08-03T07:01:05.801Z,51.80
2022-08-03T07:03:32.545Z,50.12
2022-08-03T07:05:59.784Z,47.97
2022-08-03T07:08:33.900Z,46.30
2022-08-03T07:11:01.319Z,43.08
2022-08-03T07:13:28.307Z,43.22
2022-08-03T07:15:56.334Z,43.56
2022-08-03T07:18:28.308Z,42.33
2022-08-03T07:20:57.725Z,42.63
2022-08-03T07:23:25.459Z,39.87
2022-08-03T07:25:52.333Z,39.31
2022-08-03T07:28:20.257Z,37.52
2022-08-03T07:30:47.297Z,35.27
2022-08-03T07:33:15.102Z,32.90
2022-08-03T07:35:41.817Z,33.98
2022-08-03T07:38:08.472Z,33.42
2022-08-03T07:40:37.404Z,31.13
2022-08-03T07:43:05.007Z,31.59
2022-08-03T07:45:32.120Z,31.84
2022-08-03T07:47:58.797Z,30.98
2022-08-03T07:50:26.192Z,30.24
2022-08-03T07:52:54.051Z,29.00
2022-08-03T07:55:22.848Z,29.19
2022-08-03T07:58:02.847Z,29.14
2022-08-03T08:00:29.820Z,28.29
2022-08-03T08:02:56.467Z,28.97
2022-08-03T08:05:23.141Z,27.47
2022-08-03T08:07:51.756Z,28.32
2022-08-03T08:10:18.881Z,27.51
2022-08-03T08:12:45.689Z,27.91
2022-08-03T08:15:12.504Z,26.81
2022-08-03T08:17:50.677Z,26.51
2022-08-03T08:20:27.804Z,25.89
2022-08-03T08:23:00.937Z,25.97
2022-08-03T08:25:30.102Z,26.19
2022-08-03T08:28:31.598Z,25.69
2022-08-03T08:30:43.656Z,25.19
2022-08-03T08:33:22.171Z,26.79
2022-08-03T08:35:51.895Z,24.09
2022-08-03T08:38:18.550Z,25.29
2022-08-03T08:40:45.729Z,24.43
2022-08-03T08:43:12.461Z,23.21
2022-08-03T08:45:41.127Z,24.95
2022-08-03T08:48:10.639Z,24.58
2022-08-03T08:50:37.851Z,23.55
2022-08-03T08:53:09.821Z,23.24
2022-08-03T08:55:59.227Z,22.50
2022-08-03T08:58:31.107Z,22.61
2022-08-03T09:00:58.501Z,22.96
2022-08-03T09:03:29.553Z,21.72
2022-08-03T09:06:00.216Z,21.24
2022-08-03T09:08:26.925Z,21.78
2022-08-03T09:10:53.610Z,21.68
2022-08-03T09:13:20.451Z,21.51
2022-08-03T09:15:59.077Z,20.84
2022-08-03T09:18:33.086Z,21.09
2022-08-03T09:21:30.533Z,21.02
2022-08-03T09:24:03.722Z,20.50
2022-08-03T09:26:34.256Z,20.76
2022-08-03T09:29:14.845Z,21.36
2022-08-03T09:31:46.933Z,20.71
2022-08-03T09:34:17.253Z,21.15
2022-08-03T09:36:45.666Z,20.60
2022-08-03T09:39:14.622Z,20.83
2022-08-03T09:41:43.935Z,19.22
2022-08-03T09:44:24.453Z,21.31
2022-08-03T09:46:56.857Z,19.30
2022-08-03T09:49:24.499Z,20.58
2022-08-03T09:52:32.330Z,20.24
2022-08-03T09:54:39.363Z,19.83
2022-08-03T09:57:06.117Z,19.49
2022-08-03T09:59:33.986Z,19.91
2022-08-03T10:02:01.868Z,18.44
2022-08-03T10:04:28.943Z,17.04
2022-08-03T10:07:10.526Z,18.46
2022-08-03T10:09:38.116Z,17.02
2022-08-03T10:12:09.629Z,16.52
2022-08-03T10:14:42.001Z,16.00
2022-08-03T10:17:11.928Z,17.18
2022-08-03T10:19:38.729Z,17.34
2022-08-03T10:22:16.739Z,16.49
2022-08-03T10:24:52.490Z,16.87
2022-08-03T10:27:20.691Z,16.85
2022-08-03T10:29:53.335Z,17.49
2022-08-03T10:32:30.327Z,16.88
2022-08-03T10:35:19.055Z,15.80
2022-08-03T10:38:00.694Z,16.17
2022-08-03T10:40:49.461Z,16.81
2022-08-03T10:43:26.004Z,15.88
2022-08-03T10:45:52.809Z,16.24
2022-08-03T10:48:20.340Z,15.78
2022-08-03T10:50:49.539Z,15.27
2022-08-03T10:53:18.667Z,15.52
2022-08-03T10:56:05.587Z,16.82
2022-08-03T10:58:38.286Z,15.88
2022-08-03T11:01:59.920Z,15.17
2022-08-03T11:04:29.750Z,15.96
2022-08-03T11:07:15.651Z,14.49
2022-08-03T11:09:44.454Z,14.20
2022-08-03T11:12:31.081Z,13.87
2022-08-03T11:15:04.945Z,13.81
2022-08-03T11:17:33.726Z,14.29
2022-08-03T11:20:12.753Z,15.20
2022-08-03T11:22:54.557Z,13.49
2022-08-03T11:25:53.488Z,13.42
2022-08-03T11:28:28.742Z,13.62
2022-08-03T11:30:55.604Z,12.83
2022-08-03T11:33:32.085Z,13.28
2022-08-03T11:36:01.074Z,13.84
2022-08-03T11:38:27.907Z,12.85
2022-08-03T11:40:54.799Z,12.82
2022-08-03T11:43:32.024Z,12.91
2022-08-03T11:46:07.026Z,12.95
2022-08-03T11:48:33.719Z,12.42
2022-08-03T11:51:01.945Z,14.35
2022-08-03T11:53:28.960Z,13.67
2022-08-03T11:55:59.336Z,14.18
2022-08-03T11:59:15.292Z,13.60
2022-08-03T12:01:13.638Z,12.19
2022-08-03T12:03:40.380Z,12.17
2022-08-03T12:06:11.438Z,12.69
2022-08-03T12:08:39.433Z,13.44
2022-08-03T12:11:07.791Z,14.21
2022-08-03T12:14:36.707Z,13.23
2022-08-03T12:16:34.005Z,12.78
2022-08-03T12:19:05.072Z,12.69
2022-08-03T12:21:32.261Z,12.57
2022-08-03T12:24:04.062Z,13.38
2022-08-03T12:26:43.054Z,12.46
2022-08-03T12:29:18.978Z,14.28
2022-08-03T12:31:45.637Z,13.95
2022-08-03T12:34:13.631Z,13.19
2022-08-03T12:36:52.529Z,13.25
2022-08-03T12:39:24.042Z,13.37
2022-08-03T12:41:54.334Z,13.37
2022-08-03T12:44:31.356Z,13.00
2022-08-03T12:46:59.076Z,13.00
2022-08-03T12:49:26.638Z,13.14
2022-08-03T12:51:53.475Z,12.94
2022-08-03T12:54:25.357Z,13.98
2022-08-03T12:57:16.232Z,13.08
2022-08-03T12:59:52.704Z,13.09
2022-08-03T13:02:25.772Z,12.96
2022-08-03T13:04:54.638Z,13.29
2022-08-03T13:07:23.266Z,13.70
2022-08-03T13:09:55.546Z,13.47
2022-08-03T13:12:27.679Z,13.24
2022-08-03T13:14:59.597Z,13.57
2022-08-03T13:17:27.156Z,15.36
2022-08-03T13:19:54.101Z,13.68
2022-08-03T13:22:23.358Z,13.96
2022-08-03T13:24:53.050Z,13.95
2022-08-03T13:28:02.117Z,15.05
2022-08-03T13:30:11.107Z,13.53
2022-08-03T13:32:38.200Z,14.11
2022-08-03T13:35:05.653Z,14.46
2022-08-03T13:37:32.625Z,14.43
2022-08-03T13:40:02.573Z,14.48
2022-08-03T13:42:31.485Z,13.55
2022-08-03T13:44:59.132Z,13.66
2022-08-03T13:47:26.389Z,13.57
2022-08-03T13:49:59.728Z,13.85
2022-08-03T13:52:33.482Z,13.25
2022-08-03T13:55:00.998Z,14.99
2022-08-03T13:58:06.462Z,16.41
2022-08-03T14:00:28.232Z,18.90
2022-08-03T14:03:16.562Z,17.92
2022-08-03T14:05:44.217Z,19.71
2022-08-03T14:08:11.869Z,22.67
2022-08-03T14:10:43.640Z,21.69
2022-08-03T14:13:17.588Z,24.13
2022-08-03T14:15:50.195Z,25.99
2022-08-03T14:18:28.750Z,26.75
2022-08-03T14:21:06.907Z,28.13
2022-08-03T14:23:35.337Z,29.21
2022-08-03T14:26:01.989Z,28.98
2022-08-03T14:28:28.733Z,29.91
2022-08-03T14:30:56.236Z,31.24
2022-08-03T14:33:23.808Z,30.14
2022-08-03T14:35:51.664Z,30.60
2022-08-03T14:38:18.547Z,31.29
2022-08-03T14:40:45.392Z,32.21
2022-08-03T14:43:12.913Z,30.74
2022-08-03T14:45:40.602Z,31.23
2022-08-03T14:49:02.257Z,31.50
2022-08-03T14:50:55.211Z,33.59
2022-08-03T14:53:22.584Z,31.68
2022-08-03T14:55:51.518Z,33.31
2022-08-03T14:58:23.118Z,32.82
2022-08-03T15:00:51.445Z,32.74
2022-08-03T15:03:25.770Z,33.21
2022-08-03T15:05:54.288Z,32.82
2022-08-03T15:08:22.456Z,33.81
2022-08-03T15:10:50.608Z,33.62
2022-08-03T15:13:18.316Z,34.03
2022-08-03T15:15:45.349Z,34.05
2022-08-03T15:18:12.308Z,33.63
2022-08-03T15:20:44.924Z,34.97
2022-08-03T15:23:14.580Z,32.98
2022-08-03T15:26:03.873Z,33.47
2022-08-03T15:28:29.371Z,33.81
2022-08-03T15:30:56.220Z,34.88
2022-08-03T15:33:22.894Z,36.00
2022-08-03T15:35:49.979Z,33.75
2022-08-03T15:38:16.965Z,34.76
2022-08-03T15:40:43.768Z,33.96
2022-08-03T15:43:10.543Z,35.24
2022-08-03T15:45:37.310Z,35.61
2022-08-03T15:48:05.820Z,34.20
2022-08-03T15:50:32.659Z,34.33
2022-08-03T15:52:59.476Z,33.81
2022-08-03T15:55:26.225Z,34.61
2022-08-03T15:59:04.203Z,34.29
2022-08-03T16:00:41.410Z,34.02
2022-08-03T16:03:08.331Z,34.35
2022-08-03T16:05:35.366Z,34.73
2022-08-03T16:08:03.877Z,35.46
2022-08-03T16:10:32.302Z,36.02
2022-08-03T16:13:00.089Z,35.68
2022-08-03T16:15:27.240Z,36.22
2022-08-03T16:17:53.931Z,36.53
2022-08-03T16:20:31.564Z,35.46
2022-08-03T16:23:06.985Z,35.77
2022-08-03T16:25:44.363Z,37.29
2022-08-03T16:28:16.852Z,36.12
2022-08-03T16:30:45.320Z,35.96
2022-08-03T16:33:17.319Z,37.59
2022-08-03T16:35:45.217Z,37.51
2022-08-03T16:38:16.565Z,35.76
2022-08-03T16:40:47.063Z,36.35
2022-08-03T16:43:18.119Z,37.09
2022-08-03T16:45:48.354Z,37.23
2022-08-03T16:48:16.297Z,36.06
2022-08-03T16:50:44.329Z,36.79
2022-08-03T16:53:16.684Z,37.32
2022-08-03T16:55:52.292Z,36.58
2022-08-03T16:58:34.481Z,36.39
2022-08-03T17:01:22.007Z,37.79
2022-08-03T17:04:03.556Z,37.76
2022-08-03T17:06:35.287Z,37.40
2022-08-03T17:09:10.960Z,39.04
2022-08-03T17:11:46.612Z,38.37
2022-08-03T17:14:28.548Z,38.04
2022-08-03T17:17:02.628Z,38.56
2022-08-03T17:19:32.662Z,39.56
2022-08-03T17:22:17.873Z,39.92
2022-08-03T17:24:47.386Z,39.29
2022-08-03T17:28:41.380Z,40.55
2022-08-03T17:30:08.799Z,41.06
2022-08-03T17:32:42.876Z,40.89
2022-08-03T17:35:20.913Z,42.27
2022-08-03T17:37:57.573Z,42.65
2022-08-03T17:40:29.336Z,41.56
2022-08-03T17:42:59.558Z,42.33
2022-08-03T17:45:26.378Z,43.83
2022-08-03T17:48:13.067Z,43.90
2022-08-03T17:51:22.010Z,43.71
2022-08-03T17:54:18.506Z,44.69
2022-08-03T17:56:46.624Z,45.56
2022-08-03T17:59:13.378Z,45.36
2022-08-03T18:02:30.531Z,45.25
2022-08-03T18:05:16.483Z,45.89
2022-08-03T18:07:59.562Z,45.75
2022-08-03T18:10:35.985Z,45.98
2022-08-03T18:13:22.925Z,47.04
2022-08-03T18:16:01.666Z,47.20
2022-08-03T18:18:36.906Z,48.84
2022-08-03T18:21:09.174Z,48.55
2022-08-03T18:23:44.275Z,49.50
2022-08-03T18:26:12.186Z,49.91
2022-08-03T18:28:39.434Z,50.62
2022-08-03T18:31:11.663Z,51.14
2022-08-03T18:34:17.260Z,52.42
2022-08-03T18:36:29.597Z,54.24
2022-08-03T18:38:58.494Z,54.54
2022-08-03T18:41:33.550Z,53.93
2022-08-03T18:47:07.160Z,53.92
2022-08-03T18:50:18.942Z,54.04
2022-08-03T18:53:01.778Z,54.20
2022-08-03T18:55:35.678Z,55.30
2022-08-03T18:58:02.573Z,55.24
2022-08-03T19:00:54.250Z,55.95
2022-08-03T19:03:24.660Z,56.60
2022-08-03T19:06:02.784Z,56.66
2022-08-03T19:08:47.899Z,55.11
2022-08-03T19:11:28.223Z,56.58
2022-08-03T19:13:59.198Z,57.26
2022-08-03T19:16:38.882Z,57.05
2022-08-03T19:21:59.476Z,57.80
2022-08-03T19:24:26.933Z,57.57
2022-08-03T19:26:56.019Z,58.14
2022-08-03T19:29:25.184Z,59.23
2022-08-03T19:32:19.185Z,59.33
2022-08-03T19:34:50.692Z,61.80
2022-08-03T19:37:19.561Z,62.32
2022-08-03T19:39:56.686Z,62.48
2022-08-03T19:42:31.464Z,62.19
2022-08-03T19:45:11.270Z,61.44
2022-08-03T19:47:47.546Z,61.57
2022-08-03T19:50:15.799Z,61.62
2022-08-03T19:52:46.957Z,62.45
2022-08-03T19:55:15.921Z,62.98
2022-08-03T19:57:50.190Z,62.77
2022-08-03T20:00:20.036Z,63.62
2022-08-03T20:02:53.800Z,63.27
2022-08-03T20:05:20.796Z,64.72
2022-08-03T20:07:50.167Z,64.95
2022-08-03T20:10:18.191Z,65.52
2022-08-03T20:12:46.555Z,65.82
2022-08-03T20:15:14.575Z,66.29
2022-08-03T20:17:54.398Z,65.89
2022-08-03T20:20:35.137Z,66.23
2022-08-03T20:23:07.458Z,66.51
2022-08-03T20:25:57.261Z,65.67
2022-08-03T20:28:35.166Z,65.40
2022-08-03T20:31:18.828Z,65.86
2022-08-03T20:33:49.364Z,65.57
2022-08-03T20:36:18.092Z,64.89
2022-08-03T20:38:47.666Z,64.83
2022-08-03T20:41:16.569Z,64.59
2022-08-03T20:43:43.949Z,64.11
2022-08-03T20:46:32.187Z,65.52
2022-08-03T20:48:58.868Z,63.97
2022-08-03T20:51:50.603Z,63.39
2022-08-03T20:54:28.724Z,63.31
2022-08-03T20:56:57.757Z,63.31
2022-08-03T20:59:34.822Z,63.11
2022-08-03T21:02:19.920Z,61.76
2022-08-03T21:04:56.196Z,62.06
2022-08-03T21:07:24.247Z,63.58
2022-08-03T21:09:53.661Z,63.43
2022-08-03T21:12:50.220Z,62.71
2022-08-03T21:12:59.026Z,54.97
2022-08-03T21:13:11.192Z,56.96
2022-08-03T21:16:06.262Z,63.23
2022-08-03T21:18:12.755Z,63.53
2022-08-03T21:20:43.411Z,64.08
2022-08-03T21:23:12.885Z,65.06
2022-08-03T21:26:00.840Z,66.74
2022-08-03T21:28:28.018Z,66.40
2022-08-03T21:30:54.801Z,67.50
2022-08-03T21:33:26.494Z,68.25
2022-08-03T21:35:53.419Z,68.89
2022-08-03T21:38:20.578Z,68.66
2022-08-03T21:40:56.913Z,67.85
2022-08-03T21:43:23.664Z,67.30
2022-08-03T21:45:54.667Z,67.72
2022-08-03T21:48:25.066Z,68.32
2022-08-03T21:50:52.599Z,68.47
2022-08-03T21:53:19.991Z,68.72
2022-08-03T21:56:11.214Z,69.11
2022-08-03T21:58:53.236Z,69.24
2022-08-03T22:01:24.001Z,69.65
2022-08-03T22:03:56.512Z,69.96
2022-08-03T22:06:27.730Z,71.15
2022-08-03T22:08:54.580Z,71.84
2022-08-03T22:11:21.575Z,72.05
2022-08-03T22:13:48.751Z,73.29
2022-08-03T22:16:15.771Z,74.14
2022-08-03T22:18:44.588Z,73.72
2022-08-03T22:21:12.816Z,72.19
2022-08-03T22:23:48.875Z,73.43
2022-08-03T22:26:32.352Z,73.56
2022-08-03T22:29:07.441Z,72.66
2022-08-03T22:31:58.285Z,72.38
2022-08-03T22:34:26.430Z,72.69
2022-08-03T22:36:57.180Z,71.95
2022-08-03T22:39:29.219Z,71.39
2022-08-03T22:41:59.907Z,70.82
2022-08-03T22:44:27.660Z,71.32
2022-08-03T22:46:55.519Z,71.72
2022-08-03T22:49:22.754Z,71.92
2022-08-03T22:51:51.715Z,72.64
2022-08-03T22:54:18.772Z,73.05
2022-08-03T22:56:50.337Z,72.87
2022-08-03T22:59:39.077Z,73.20
2022-08-03T23:02:20.339Z,73.06
2022-08-03T23:04:54.907Z,73.30
2022-08-03T23:07:30.180Z,73.69
2022-08-03T23:09:58.172Z,73.94
2022-08-03T23:12:29.657Z,73.87
2022-08-03T23:15:00.371Z,73.26
2022-08-03T23:17:30.096Z,72.86
2022-08-03T23:20:01.838Z,73.68
2022-08-03T23:22:29.969Z,74.72
2022-08-03T23:24:59.082Z,76.30
2022-08-03T23:27:27.728Z,77.26
2022-08-03T23:29:56.163Z,77.46
2022-08-03T23:32:26.523Z,78.11
2022-08-03T23:35:14.791Z,77.75
2022-08-03T23:38:22.411Z,78.03
2022-08-03T23:40:30.986Z,78.42
2022-08-03T23:42:58.329Z,78.52
2022-08-03T23:45:27.664Z,78.14
2022-08-03T23:47:54.740Z,77.15
2022-08-03T23:50:21.833Z,77.49
2022-08-03T23:53:01.373Z,78.13
2022-08-03T23:55:54.236Z,78.64
2022-08-03T23:58:23.519Z,78.47
